sensor_id;sensor_type;location;lat;lon;timestamp;P1;durP1;ratioP1;P2;durP2;ratioP2
19965;SDS011;10144;50.874;4.762;2023-05-07T00:01:10;20.25;;;11.05;;
19965;SDS011;10144;50.874;4.762;2023-05-07T00:03:41;21.30;;;10.80;;
19965;SDS011;10144;50.874;4.762;2023-05-07T00:06:10;18.40;;;11.05;;
19965;SDS011;10144;50.874;4.762;2023-05-07T00:08:43;20.90;;;10.70;;
19965;SDS011;10144;50.874;4.762;2023-05-07T00:13:58;20.42;;;10.30;;
19965;SDS011;10144;50.874;4.762;2023-05-07T00:16:25;18.05;;;11.38;;
19965;SDS011;10144;50.874;4.762;2023-05-07T00:18:54;19.10;;;11.10;;
19965;SDS011;10144;50.874;4.762;2023-05-07T00:21:20;20.83;;;10.52;;
19965;SDS011;10144;50.874;4.762;2023-05-07T00:26:18;18.85;;;10.80;;
19965;SDS011;10144;50.874;4.762;2023-05-07T00:28:50;20.02;;;10.63;;
19965;SDS011;10144;50.874;4.762;2023-05-07T00:31:15;20.33;;;10.48;;
19965;SDS011;10144;50.874;4.762;2023-05-07T00:33:44;17.70;;;10.50;;
19965;SDS011;10144;50.874;4.762;2023-05-07T00:36:16;21.50;;;10.05;;
19965;SDS011;10144;50.874;4.762;2023-05-07T00:38:50;16.05;;;10.15;;
19965;SDS011;10144;50.874;4.762;2023-05-07T00:41:15;16.05;;;9.70;;
19965;SDS011;10144;50.874;4.762;2023-05-07T00:43:44;18.75;;;9.35;;
19965;SDS011;10144;50.874;4.762;2023-05-07T00:48:45;19.05;;;10.15;;
19965;SDS011;10144;50.874;4.762;2023-05-07T00:51:17;17.60;;;9.77;;
19965;SDS011;10144;50.874;4.762;2023-05-07T00:53:49;16.55;;;9.65;;
19965;SDS011;10144;50.874;4.762;2023-05-07T00:56:16;19.05;;;10.13;;
19965;SDS011;10144;50.874;4.762;2023-05-07T00:58:42;16.75;;;9.90;;
19965;SDS011;10144;50.874;4.762;2023-05-07T01:01:11;19.38;;;9.57;;
19965;SDS011;10144;50.874;4.762;2023-05-07T01:03:42;21.05;;;8.95;;
19965;SDS011;10144;50.874;4.762;2023-05-07T01:06:14;18.73;;;9.65;;
19965;SDS011;10144;50.874;4.762;2023-05-07T01:08:41;16.80;;;9.15;;
19965;SDS011;10144;50.874;4.762;2023-05-07T01:11:08;18.85;;;9.82;;
19965;SDS011;10144;50.874;4.762;2023-05-07T01:13:39;17.63;;;9.68;;
19965;SDS011;10144;50.874;4.762;2023-05-07T01:18:37;20.30;;;9.25;;
19965;SDS011;10144;50.874;4.762;2023-05-07T01:21:09;15.60;;;8.10;;
19965;SDS011;10144;50.874;4.762;2023-05-07T01:26:05;15.95;;;8.45;;
19965;SDS011;10144;50.874;4.762;2023-05-07T01:28:34;13.00;;;7.85;;
19965;SDS011;10144;50.874;4.762;2023-05-07T01:33:55;15.50;;;7.85;;
19965;SDS011;10144;50.874;4.762;2023-05-07T01:38:58;17.60;;;7.72;;
19965;SDS011;10144;50.874;4.762;2023-05-07T01:41:28;16.40;;;7.63;;
19965;SDS011;10144;50.874;4.762;2023-05-07T01:43:54;15.82;;;7.45;;
19965;SDS011;10144;50.874;4.762;2023-05-07T01:46:20;16.10;;;7.57;;
19965;SDS011;10144;50.874;4.762;2023-05-07T01:48:47;13.63;;;7.72;;
19965;SDS011;10144;50.874;4.762;2023-05-07T01:53:48;19.73;;;8.60;;
19965;SDS011;10144;50.874;4.762;2023-05-07T01:56:17;17.13;;;8.40;;
19965;SDS011;10144;50.874;4.762;2023-05-07T01:58:44;16.40;;;8.55;;
19965;SDS011;10144;50.874;4.762;2023-05-07T02:01:14;17.77;;;8.25;;
19965;SDS011;10144;50.874;4.762;2023-05-07T02:06:12;21.60;;;8.50;;
19965;SDS011;10144;50.874;4.762;2023-05-07T02:08:38;18.67;;;9.55;;
19965;SDS011;10144;50.874;4.762;2023-05-07T02:11:04;16.27;;;9.10;;
19965;SDS011;10144;50.874;4.762;2023-05-07T02:13:35;18.90;;;10.55;;
19965;SDS011;10144;50.874;4.762;2023-05-07T02:16:02;16.98;;;9.95;;
19965;SDS011;10144;50.874;4.762;2023-05-07T02:18:32;16.38;;;10.15;;
19965;SDS011;10144;50.874;4.762;2023-05-07T02:23:32;23.40;;;10.88;;
19965;SDS011;10144;50.874;4.762;2023-05-07T02:26:01;21.90;;;11.10;;
19965;SDS011;10144;50.874;4.762;2023-05-07T02:28:34;21.83;;;11.23;;
19965;SDS011;10144;50.874;4.762;2023-05-07T02:31:04;18.60;;;10.75;;
19965;SDS011;10144;50.874;4.762;2023-05-07T02:33:33;23.33;;;11.27;;
19965;SDS011;10144;50.874;4.762;2023-05-07T02:36:12;23.02;;;10.68;;
19965;SDS011;10144;50.874;4.762;2023-05-07T02:38:44;19.23;;;10.30;;
19965;SDS011;10144;50.874;4.762;2023-05-07T02:41:12;20.42;;;10.43;;
19965;SDS011;10144;50.874;4.762;2023-05-07T02:43:41;22.23;;;11.13;;
19965;SDS011;10144;50.874;4.762;2023-05-07T02:46:07;23.33;;;10.30;;
19965;SDS011;10144;50.874;4.762;2023-05-07T02:48:35;20.80;;;10.88;;
19965;SDS011;10144;50.874;4.762;2023-05-07T02:51:02;17.80;;;10.88;;
19965;SDS011;10144;50.874;4.762;2023-05-07T02:53:34;19.13;;;11.35;;
19965;SDS011;10144;50.874;4.762;2023-05-07T02:56:03;23.85;;;11.70;;
19965;SDS011;10144;50.874;4.762;2023-05-07T02:58:36;21.42;;;11.85;;
19965;SDS011;10144;50.874;4.762;2023-05-07T03:06:36;22.90;;;13.98;;
19965;SDS011;10144;50.874;4.762;2023-05-07T03:11:37;26.15;;;14.20;;
19965;SDS011;10144;50.874;4.762;2023-05-07T03:14:03;24.13;;;14.00;;
19965;SDS011;10144;50.874;4.762;2023-05-07T03:16:28;25.35;;;14.57;;
19965;SDS011;10144;50.874;4.762;2023-05-07T03:18:57;27.55;;;14.85;;
19965;SDS011;10144;50.874;4.762;2023-05-07T03:23:55;25.20;;;14.82;;
19965;SDS011;10144;50.874;4.762;2023-05-07T03:26:20;26.10;;;14.73;;
19965;SDS011;10144;50.874;4.762;2023-05-07T03:31:21;24.52;;;14.48;;
19965;SDS011;10144;50.874;4.762;2023-05-07T03:33:56;27.42;;;14.77;;
19965;SDS011;10144;50.874;4.762;2023-05-07T03:36:22;26.95;;;15.48;;
19965;SDS011;10144;50.874;4.762;2023-05-07T03:38:54;27.05;;;15.15;;
19965;SDS011;10144;50.874;4.762;2023-05-07T03:41:20;28.45;;;15.90;;
19965;SDS011;10144;50.874;4.762;2023-05-07T03:43:46;28.05;;;16.27;;
19965;SDS011;10144;50.874;4.762;2023-05-07T03:54:03;28.92;;;16.65;;
19965;SDS011;10144;50.874;4.762;2023-05-07T03:58:57;31.05;;;17.75;;
19965;SDS011;10144;50.874;4.762;2023-05-07T04:01:26;31.83;;;16.88;;
19965;SDS011;10144;50.874;4.762;2023-05-07T04:03:55;29.15;;;17.10;;
19965;SDS011;10144;50.874;4.762;2023-05-07T04:06:21;29.08;;;17.25;;
19965;SDS011;10144;50.874;4.762;2023-05-07T04:08:50;34.28;;;17.88;;
19965;SDS011;10144;50.874;4.762;2023-05-07T04:11:16;33.22;;;17.48;;
19965;SDS011;10144;50.874;4.762;2023-05-07T04:13:43;28.63;;;17.42;;
19965;SDS011;10144;50.874;4.762;2023-05-07T04:16:08;33.55;;;18.77;;
19965;SDS011;10144;50.874;4.762;2023-05-07T04:21:15;33.78;;;19.42;;
19965;SDS011;10144;50.874;4.762;2023-05-07T04:23:46;35.42;;;19.23;;
19965;SDS011;10144;50.874;4.762;2023-05-07T04:26:12;31.02;;;18.70;;
19965;SDS011;10144;50.874;4.762;2023-05-07T04:28:39;32.03;;;18.65;;
19965;SDS011;10144;50.874;4.762;2023-05-07T04:31:20;35.50;;;18.33;;
19965;SDS011;10144;50.874;4.762;2023-05-07T04:33:49;34.65;;;18.63;;
19965;SDS011;10144;50.874;4.762;2023-05-07T04:36:18;33.42;;;18.83;;
19965;SDS011;10144;50.874;4.762;2023-05-07T04:38:49;30.48;;;18.17;;
19965;SDS011;10144;50.874;4.762;2023-05-07T04:41:15;29.83;;;17.52;;
19965;SDS011;10144;50.874;4.762;2023-05-07T04:43:44;29.58;;;17.30;;
19965;SDS011;10144;50.874;4.762;2023-05-07T04:49:02;27.90;;;17.17;;
19965;SDS011;10144;50.874;4.762;2023-05-07T04:51:28;29.95;;;16.15;;
19965;SDS011;10144;50.874;4.762;2023-05-07T04:53:54;29.00;;;16.20;;
19965;SDS011;10144;50.874;4.762;2023-05-07T04:56:20;29.73;;;16.13;;
19965;SDS011;10144;50.874;4.762;2023-05-07T04:58:47;30.73;;;15.65;;
19965;SDS011;10144;50.874;4.762;2023-05-07T05:01:19;32.05;;;15.10;;
19965;SDS011;10144;50.874;4.762;2023-05-07T05:03:48;22.80;;;13.95;;
19965;SDS011;10144;50.874;4.762;2023-05-07T05:06:15;32.45;;;14.15;;
19965;SDS011;10144;50.874;4.762;2023-05-07T05:08:44;26.58;;;13.00;;
19965;SDS011;10144;50.874;4.762;2023-05-07T05:13:40;25.55;;;14.18;;
19965;SDS011;10144;50.874;4.762;2023-05-07T05:16:09;24.70;;;12.18;;
19965;SDS011;10144;50.874;4.762;2023-05-07T05:18:38;24.27;;;10.68;;
19965;SDS011;10144;50.874;4.762;2023-05-07T05:21:05;21.75;;;11.27;;
19965;SDS011;10144;50.874;4.762;2023-05-07T05:23:36;21.02;;;10.57;;
19965;SDS011;10144;50.874;4.762;2023-05-07T05:26:03;20.10;;;11.02;;
19965;SDS011;10144;50.874;4.762;2023-05-07T05:28:32;27.30;;;11.68;;
19965;SDS011;10144;50.874;4.762;2023-05-07T05:30:58;21.60;;;10.90;;
19965;SDS011;10144;50.874;4.762;2023-05-07T05:33:27;24.13;;;10.90;;
19965;SDS011;10144;50.874;4.762;2023-05-07T05:35:55;26.42;;;10.80;;
19965;SDS011;10144;50.874;4.762;2023-05-07T05:38:23;23.55;;;11.00;;
19965;SDS011;10144;50.874;4.762;2023-05-07T05:40:51;22.98;;;11.40;;
19965;SDS011;10144;50.874;4.762;2023-05-07T05:43:18;23.27;;;12.07;;
19965;SDS011;10144;50.874;4.762;2023-05-07T05:45:47;22.50;;;10.10;;
19965;SDS011;10144;50.874;4.762;2023-05-07T05:48:18;20.52;;;11.73;;
19965;SDS011;10144;50.874;4.762;2023-05-07T05:50:48;21.73;;;11.90;;
19965;SDS011;10144;50.874;4.762;2023-05-07T05:53:19;26.75;;;13.32;;
19965;SDS011;10144;50.874;4.762;2023-05-07T05:55:45;21.60;;;13.02;;
19965;SDS011;10144;50.874;4.762;2023-05-07T05:58:12;23.70;;;14.15;;
19965;SDS011;10144;50.874;4.762;2023-05-07T06:00:40;22.50;;;14.05;;
19965;SDS011;10144;50.874;4.762;2023-05-07T06:03:09;27.75;;;14.13;;
19965;SDS011;10144;50.874;4.762;2023-05-07T06:05:35;24.17;;;14.40;;
19965;SDS011;10144;50.874;4.762;2023-05-07T06:08:01;23.00;;;13.65;;
19965;SDS011;10144;50.874;4.762;2023-05-07T06:10:28;26.25;;;13.55;;
19965;SDS011;10144;50.874;4.762;2023-05-07T06:12:55;25.25;;;13.63;;
19965;SDS011;10144;50.874;4.762;2023-05-07T06:15:21;23.58;;;12.07;;
19965;SDS011;10144;50.874;4.762;2023-05-07T06:17:52;22.15;;;12.88;;
19965;SDS011;10144;50.874;4.762;2023-05-07T06:20:18;22.02;;;11.27;;
19965;SDS011;10144;50.874;4.762;2023-05-07T06:22:47;21.42;;;11.25;;
19965;SDS011;10144;50.874;4.762;2023-05-07T06:27:41;21.50;;;11.10;;
19965;SDS011;10144;50.874;4.762;2023-05-07T06:30:07;24.27;;;11.30;;
19965;SDS011;10144;50.874;4.762;2023-05-07T06:32:36;19.55;;;10.65;;
19965;SDS011;10144;50.874;4.762;2023-05-07T06:35:02;23.02;;;10.23;;
19965;SDS011;10144;50.874;4.762;2023-05-07T06:37:30;24.02;;;10.75;;
19965;SDS011;10144;50.874;4.762;2023-05-07T06:39:59;21.00;;;9.65;;
19965;SDS011;10144;50.874;4.762;2023-05-07T06:42:28;21.95;;;10.05;;
19965;SDS011;10144;50.874;4.762;2023-05-07T06:44:53;21.65;;;9.88;;
19965;SDS011;10144;50.874;4.762;2023-05-07T06:47:20;20.98;;;10.05;;
19965;SDS011;10144;50.874;4.762;2023-05-07T06:52:32;19.17;;;9.40;;
19965;SDS011;10144;50.874;4.762;2023-05-07T06:54:59;22.60;;;9.82;;
19965;SDS011;10144;50.874;4.762;2023-05-07T06:57:30;18.77;;;8.38;;
19965;SDS011;10144;50.874;4.762;2023-05-07T06:59:59;19.05;;;7.95;;
19965;SDS011;10144;50.874;4.762;2023-05-07T07:02:26;15.73;;;7.00;;
19965;SDS011;10144;50.874;4.762;2023-05-07T07:04:55;13.10;;;6.20;;
19965;SDS011;10144;50.874;4.762;2023-05-07T07:07:20;15.35;;;5.90;;
19965;SDS011;10144;50.874;4.762;2023-05-07T07:14:48;17.05;;;4.95;;
19965;SDS011;10144;50.874;4.762;2023-05-07T07:17:14;11.98;;;4.72;;
19965;SDS011;10144;50.874;4.762;2023-05-07T07:19:39;13.60;;;4.93;;
19965;SDS011;10144;50.874;4.762;2023-05-07T07:22:06;14.32;;;4.80;;
19965;SDS011;10144;50.874;4.762;2023-05-07T07:24:32;11.05;;;4.63;;
19965;SDS011;10144;50.874;4.762;2023-05-07T07:29:26;12.07;;;4.30;;
19965;SDS011;10144;50.874;4.762;2023-05-07T07:31:58;10.98;;;4.30;;
19965;SDS011;10144;50.874;4.762;2023-05-07T07:36:56;10.25;;;4.28;;
19965;SDS011;10144;50.874;4.762;2023-05-07T07:47:07;12.48;;;4.93;;
19965;SDS011;10144;50.874;4.762;2023-05-07T07:52:05;9.23;;;3.95;;
19965;SDS011;10144;50.874;4.762;2023-05-07T07:54:32;9.43;;;3.60;;
19965;SDS011;10144;50.874;4.762;2023-05-07T07:57:01;11.93;;;3.95;;
19965;SDS011;10144;50.874;4.762;2023-05-07T08:01:58;11.60;;;3.67;;
19965;SDS011;10144;50.874;4.762;2023-05-07T08:04:34;10.38;;;3.22;;
19965;SDS011;10144;50.874;4.762;2023-05-07T08:07:00;11.30;;;3.83;;
19965;SDS011;10144;50.874;4.762;2023-05-07T08:09:32;10.05;;;3.45;;
19965;SDS011;10144;50.874;4.762;2023-05-07T08:11:57;7.32;;;3.13;;
19965;SDS011;10144;50.874;4.762;2023-05-07T08:14:23;5.30;;;3.20;;
19965;SDS011;10144;50.874;4.762;2023-05-07T08:16:49;11.13;;;3.28;;
19965;SDS011;10144;50.874;4.762;2023-05-07T08:19:14;12.30;;;4.30;;
19965;SDS011;10144;50.874;4.762;2023-05-07T08:21:40;9.35;;;4.18;;
19965;SDS011;10144;50.874;4.762;2023-05-07T08:24:06;9.93;;;4.72;;
19965;SDS011;10144;50.874;4.762;2023-05-07T08:26:31;10.95;;;4.85;;
19965;SDS011;10144;50.874;4.762;2023-05-07T08:28:57;13.27;;;4.82;;
19965;SDS011;10144;50.874;4.762;2023-05-07T08:31:23;15.80;;;5.22;;
19965;SDS011;10144;50.874;4.762;2023-05-07T08:33:49;12.23;;;4.15;;
19965;SDS011;10144;50.874;4.762;2023-05-07T08:36:15;6.85;;;3.67;;
19965;SDS011;10144;50.874;4.762;2023-05-07T08:38:40;13.52;;;4.10;;
19965;SDS011;10144;50.874;4.762;2023-05-07T08:41:09;12.02;;;4.32;;
19965;SDS011;10144;50.874;4.762;2023-05-07T08:43:36;10.82;;;3.72;;
19965;SDS011;10144;50.874;4.762;2023-05-07T08:46:05;11.20;;;4.05;;
19965;SDS011;10144;50.874;4.762;2023-05-07T08:48:33;11.40;;;3.88;;
19965;SDS011;10144;50.874;4.762;2023-05-07T08:51:00;13.10;;;4.32;;
19965;SDS011;10144;50.874;4.762;2023-05-07T08:53:26;12.10;;;4.70;;
19965;SDS011;10144;50.874;4.762;2023-05-07T08:55:52;14.32;;;4.70;;
19965;SDS011;10144;50.874;4.762;2023-05-07T08:58:18;10.55;;;4.38;;
19965;SDS011;10144;50.874;4.762;2023-05-07T09:00:44;7.80;;;3.67;;
19965;SDS011;10144;50.874;4.762;2023-05-07T09:03:12;11.38;;;4.20;;
19965;SDS011;10144;50.874;4.762;2023-05-07T09:05:42;10.52;;;4.20;;
19965;SDS011;10144;50.874;4.762;2023-05-07T09:08:15;8.98;;;3.63;;
19965;SDS011;10144;50.874;4.762;2023-05-07T09:10:42;12.77;;;4.20;;
19965;SDS011;10144;50.874;4.762;2023-05-07T09:13:08;8.93;;;3.50;;
19965;SDS011;10144;50.874;4.762;2023-05-07T09:15:35;10.93;;;3.65;;
19965;SDS011;10144;50.874;4.762;2023-05-07T09:18:01;9.75;;;3.50;;
19965;SDS011;10144;50.874;4.762;2023-05-07T09:20:26;9.88;;;3.60;;
19965;SDS011;10144;50.874;4.762;2023-05-07T09:22:52;10.77;;;3.15;;
19965;SDS011;10144;50.874;4.762;2023-05-07T09:25:30;5.57;;;2.65;;
19965;SDS011;10144;50.874;4.762;2023-05-07T09:27:57;8.32;;;2.80;;
19965;SDS011;10144;50.874;4.762;2023-05-07T09:30:27;8.05;;;3.08;;
19965;SDS011;10144;50.874;4.762;2023-05-07T09:32:54;11.40;;;3.38;;
19965;SDS011;10144;50.874;4.762;2023-05-07T09:35:20;5.50;;;2.85;;
19965;SDS011;10144;50.874;4.762;2023-05-07T09:37:46;8.55;;;3.15;;
19965;SDS011;10144;50.874;4.762;2023-05-07T09:40:22;7.10;;;3.08;;
19965;SDS011;10144;50.874;4.762;2023-05-07T09:42:49;7.93;;;3.05;;
19965;SDS011;10144;50.874;4.762;2023-05-07T09:45:25;8.75;;;3.22;;
19965;SDS011;10144;50.874;4.762;2023-05-07T09:47:53;7.68;;;2.92;;
19965;SDS011;10144;50.874;4.762;2023-05-07T09:50:27;6.93;;;3.20;;
19965;SDS011;10144;50.874;4.762;2023-05-07T09:52:54;10.05;;;3.08;;
19965;SDS011;10144;50.874;4.762;2023-05-07T09:55:22;7.80;;;3.05;;
19965;SDS011;10144;50.874;4.762;2023-05-07T09:57:52;10.38;;;3.60;;
19965;SDS011;10144;50.874;4.762;2023-05-07T10:00:19;8.07;;;3.45;;
19965;SDS011;10144;50.874;4.762;2023-05-07T10:02:50;11.48;;;3.63;;
19965;SDS011;10144;50.874;4.762;2023-05-07T10:05:21;7.97;;;3.38;;
19965;SDS011;10144;50.874;4.762;2023-05-07T10:07:47;7.70;;;3.65;;
19965;SDS011;10144;50.874;4.762;2023-05-07T10:10:14;10.50;;;3.92;;
19965;SDS011;10144;50.874;4.762;2023-05-07T10:12:40;7.47;;;3.75;;
19965;SDS011;10144;50.874;4.762;2023-05-07T10:15:10;8.50;;;3.38;;
19965;SDS011;10144;50.874;4.762;2023-05-07T10:17:39;10.25;;;3.90;;
19965;SDS011;10144;50.874;4.762;2023-05-07T10:20:05;8.80;;;4.03;;
19965;SDS011;10144;50.874;4.762;2023-05-07T10:22:37;11.23;;;4.07;;
19965;SDS011;10144;50.874;4.762;2023-05-07T10:25:13;10.85;;;4.15;;
19965;SDS011;10144;50.874;4.762;2023-05-07T10:27:50;13.52;;;4.47;;
19965;SDS011;10144;50.874;4.762;2023-05-07T10:30:25;11.18;;;4.32;;
19965;SDS011;10144;50.874;4.762;2023-05-07T10:33:13;9.25;;;4.20;;
19965;SDS011;10144;50.874;4.762;2023-05-07T10:35:43;9.88;;;3.83;;
19965;SDS011;10144;50.874;4.762;2023-05-07T10:38:11;10.65;;;3.95;;
19965;SDS011;10144;50.874;4.762;2023-05-07T10:40:37;8.13;;;3.85;;
19965;SDS011;10144;50.874;4.762;2023-05-07T10:43:04;10.20;;;4.20;;
19965;SDS011;10144;50.874;4.762;2023-05-07T10:45:30;11.52;;;4.30;;
19965;SDS011;10144;50.874;4.762;2023-05-07T10:50:32;8.32;;;3.47;;
19965;SDS011;10144;50.874;4.762;2023-05-07T10:56:23;11.30;;;3.45;;
19965;SDS011;10144;50.874;4.762;2023-05-07T10:58:43;7.25;;;2.78;;
19965;SDS011;10144;50.874;4.762;2023-05-07T11:01:09;7.97;;;2.85;;
19965;SDS011;10144;50.874;4.762;2023-05-07T11:03:37;9.52;;;3.00;;
19965;SDS011;10144;50.874;4.762;2023-05-07T11:06:40;6.85;;;3.10;;
19965;SDS011;10144;50.874;4.762;2023-05-07T11:09:06;5.70;;;2.60;;
19965;SDS011;10144;50.874;4.762;2023-05-07T11:17:11;9.45;;;3.35;;
19965;SDS011;10144;50.874;4.762;2023-05-07T11:19:55;6.53;;;3.40;;
19965;SDS011;10144;50.874;4.762;2023-05-07T11:22:40;11.05;;;3.90;;
19965;SDS011;10144;50.874;4.762;2023-05-07T11:25:06;7.45;;;3.70;;
19965;SDS011;10144;50.874;4.762;2023-05-07T11:27:32;7.07;;;3.40;;
19965;SDS011;10144;50.874;4.762;2023-05-07T11:29:59;8.35;;;3.38;;
19965;SDS011;10144;50.874;4.762;2023-05-07T11:32:29;8.18;;;3.22;;
19965;SDS011;10144;50.874;4.762;2023-05-07T11:34:56;10.82;;;3.80;;
19965;SDS011;10144;50.874;4.762;2023-05-07T11:37:23;7.40;;;3.05;;
19965;SDS011;10144;50.874;4.762;2023-05-07T11:39:50;8.38;;;3.25;;
19965;SDS011;10144;50.874;4.762;2023-05-07T11:42:33;7.05;;;2.38;;
19965;SDS011;10144;50.874;4.762;2023-05-07T11:45:02;7.63;;;2.70;;
19965;SDS011;10144;50.874;4.762;2023-05-07T11:47:32;8.02;;;2.50;;
19965;SDS011;10144;50.874;4.762;2023-05-07T11:50:03;5.45;;;2.28;;
19965;SDS011;10144;50.874;4.762;2023-05-07T11:52:30;4.20;;;1.60;;
19965;SDS011;10144;50.874;4.762;2023-05-07T11:54:57;4.97;;;2.05;;
19965;SDS011;10144;50.874;4.762;2023-05-07T11:57:25;8.02;;;2.58;;
19965;SDS011;10144;50.874;4.762;2023-05-07T11:59:54;8.95;;;2.70;;
19965;SDS011;10144;50.874;4.762;2023-05-07T12:02:24;5.82;;;2.40;;
19965;SDS011;10144;50.874;4.762;2023-05-07T12:04:53;5.47;;;2.30;;
19965;SDS011;10144;50.874;4.762;2023-05-07T12:07:20;7.90;;;2.17;;
19965;SDS011;10144;50.874;4.762;2023-05-07T12:09:47;4.40;;;1.77;;
19965;SDS011;10144;50.874;4.762;2023-05-07T12:12:13;6.18;;;2.20;;
19965;SDS011;10144;50.874;4.762;2023-05-07T12:14:42;3.83;;;2.08;;
19965;SDS011;10144;50.874;4.762;2023-05-07T12:17:09;5.47;;;2.20;;
19965;SDS011;10144;50.874;4.762;2023-05-07T12:19:36;5.85;;;2.10;;
19965;SDS011;10144;50.874;4.762;2023-05-07T12:22:03;6.03;;;2.35;;
19965;SDS011;10144;50.874;4.762;2023-05-07T12:24:45;7.43;;;2.20;;
19965;SDS011;10144;50.874;4.762;2023-05-07T12:27:12;10.68;;;2.47;;
19965;SDS011;10144;50.874;4.762;2023-05-07T12:29:47;5.72;;;2.13;;
19965;SDS011;10144;50.874;4.762;2023-05-07T12:32:16;6.43;;;1.98;;
19965;SDS011;10144;50.874;4.762;2023-05-07T12:34:43;6.43;;;1.70;;
19965;SDS011;10144;50.874;4.762;2023-05-07T12:37:10;5.13;;;1.73;;
19965;SDS011;10144;50.874;4.762;2023-05-07T12:39:36;5.22;;;2.03;;
19965;SDS011;10144;50.874;4.762;2023-05-07T12:42:01;7.70;;;2.25;;
19965;SDS011;10144;50.874;4.762;2023-05-07T12:44:31;6.30;;;2.05;;
19965;SDS011;10144;50.874;4.762;2023-05-07T12:46:57;5.30;;;1.98;;
19965;SDS011;10144;50.874;4.762;2023-05-07T12:49:26;5.85;;;1.55;;
19965;SDS011;10144;50.874;4.762;2023-05-07T12:51:51;4.03;;;1.50;;
19965;SDS011;10144;50.874;4.762;2023-05-07T12:54:28;4.68;;;1.60;;
19965;SDS011;10144;50.874;4.762;2023-05-07T12:57:16;5.75;;;1.73;;
19965;SDS011;10144;50.874;4.762;2023-05-07T12:59:45;5.68;;;1.70;;
19965;SDS011;10144;50.874;4.762;2023-05-07T13:02:11;3.72;;;1.60;;
19965;SDS011;10144;50.874;4.762;2023-05-07T13:04:38;3.33;;;1.80;;
19965;SDS011;10144;50.874;4.762;2023-05-07T13:07:04;3.85;;;1.75;;
19965;SDS011;10144;50.874;4.762;2023-05-07T13:09:30;4.47;;;1.80;;
19965;SDS011;10144;50.874;4.762;2023-05-07T13:11:56;3.50;;;1.50;;
19965;SDS011;10144;50.874;4.762;2023-05-07T13:14:24;4.60;;;1.60;;
19965;SDS011;10144;50.874;4.762;2023-05-07T13:16:50;4.32;;;2.05;;
19965;SDS011;10144;50.874;4.762;2023-05-07T13:19:16;4.05;;;1.63;;
19965;SDS011;10144;50.874;4.762;2023-05-07T13:21:42;4.13;;;1.70;;
19965;SDS011;10144;50.874;4.762;2023-05-07T13:24:08;4.95;;;1.70;;
19965;SDS011;10144;50.874;4.762;2023-05-07T13:26:34;4.47;;;1.73;;
19965;SDS011;10144;50.874;4.762;2023-05-07T13:29:00;7.68;;;1.70;;
19965;SDS011;10144;50.874;4.762;2023-05-07T13:31:25;5.43;;;1.70;;
19965;SDS011;10144;50.874;4.762;2023-05-07T13:33:51;3.13;;;1.80;;
19965;SDS011;10144;50.874;4.762;2023-05-07T13:36:17;6.10;;;1.98;;
19965;SDS011;10144;50.874;4.762;2023-05-07T13:38:43;5.30;;;2.00;;
19965;SDS011;10144;50.874;4.762;2023-05-07T13:41:09;3.88;;;2.00;;
19965;SDS011;10144;50.874;4.762;2023-05-07T13:43:38;3.90;;;1.85;;
19965;SDS011;10144;50.874;4.762;2023-05-07T13:46:09;3.63;;;1.63;;
19965;SDS011;10144;50.874;4.762;2023-05-07T13:51:16;9.13;;;2.28;;
19965;SDS011;10144;50.874;4.762;2023-05-07T13:53:43;5.05;;;2.00;;
19965;SDS011;10144;50.874;4.762;2023-05-07T13:58:41;5.28;;;2.10;;
19965;SDS011;10144;50.874;4.762;2023-05-07T14:01:07;4.45;;;2.10;;
19965;SDS011;10144;50.874;4.762;2023-05-07T14:03:32;5.43;;;1.95;;
19965;SDS011;10144;50.874;4.762;2023-05-07T14:05:59;5.50;;;2.00;;
19965;SDS011;10144;50.874;4.762;2023-05-07T14:08:26;4.72;;;1.83;;
19965;SDS011;10144;50.874;4.762;2023-05-07T14:10:52;6.68;;;2.70;;
19965;SDS011;10144;50.874;4.762;2023-05-07T14:13:18;4.78;;;2.22;;
19965;SDS011;10144;50.874;4.762;2023-05-07T14:15:43;4.72;;;2.17;;
19965;SDS011;10144;50.874;4.762;2023-05-07T14:18:14;5.00;;;2.13;;
19965;SDS011;10144;50.874;4.762;2023-05-07T14:20:40;3.72;;;1.90;;
19965;SDS011;10144;50.874;4.762;2023-05-07T14:23:08;7.85;;;2.40;;
19965;SDS011;10144;50.874;4.762;2023-05-07T14:25:33;8.15;;;2.60;;
19965;SDS011;10144;50.874;4.762;2023-05-07T14:27:59;6.55;;;2.85;;
19965;SDS011;10144;50.874;4.762;2023-05-07T14:30:25;9.45;;;3.10;;
19965;SDS011;10144;50.874;4.762;2023-05-07T14:32:50;8.25;;;3.28;;
19965;SDS011;10144;50.874;4.762;2023-05-07T14:35:17;10.05;;;2.83;;
19965;SDS011;10144;50.874;4.762;2023-05-07T14:37:43;10.10;;;3.40;;
19965;SDS011;10144;50.874;4.762;2023-05-07T14:40:09;8.85;;;3.40;;
19965;SDS011;10144;50.874;4.762;2023-05-07T14:42:35;7.43;;;3.30;;
19965;SDS011;10144;50.874;4.762;2023-05-07T14:45:00;7.53;;;3.08;;
19965;SDS011;10144;50.874;4.762;2023-05-07T14:47:27;5.38;;;2.92;;
19965;SDS011;10144;50.874;4.762;2023-05-07T14:49:52;7.28;;;3.10;;
19965;SDS011;10144;50.874;4.762;2023-05-07T14:52:19;5.93;;;2.80;;
19965;SDS011;10144;50.874;4.762;2023-05-07T14:54:45;4.03;;;2.58;;
19965;SDS011;10144;50.874;4.762;2023-05-07T14:57:10;4.40;;;2.50;;
19965;SDS011;10144;50.874;4.762;2023-05-07T14:59:43;5.40;;;2.72;;
19965;SDS011;10144;50.874;4.762;2023-05-07T15:02:10;6.32;;;2.80;;
19965;SDS011;10144;50.874;4.762;2023-05-07T15:04:36;7.55;;;3.20;;
19965;SDS011;10144;50.874;4.762;2023-05-07T15:07:03;4.90;;;2.80;;
19965;SDS011;10144;50.874;4.762;2023-05-07T15:09:29;6.88;;;3.08;;
19965;SDS011;10144;50.874;4.762;2023-05-07T15:11:54;4.03;;;2.55;;
19965;SDS011;10144;50.874;4.762;2023-05-07T15:14:21;5.78;;;2.83;;
19965;SDS011;10144;50.874;4.762;2023-05-07T15:16:48;5.55;;;2.72;;
19965;SDS011;10144;50.874;4.762;2023-05-07T15:19:13;9.35;;;3.10;;
19965;SDS011;10144;50.874;4.762;2023-05-07T15:21:42;8.88;;;3.00;;
19965;SDS011;10144;50.874;4.762;2023-05-07T15:24:08;6.82;;;2.80;;
19965;SDS011;10144;50.874;4.762;2023-05-07T15:26:33;5.30;;;2.20;;
19965;SDS011;10144;50.874;4.762;2023-05-07T15:28:59;7.30;;;2.55;;
19965;SDS011;10144;50.874;4.762;2023-05-07T15:31:25;5.38;;;2.60;;
19965;SDS011;10144;50.874;4.762;2023-05-07T15:33:50;6.05;;;2.60;;
19965;SDS011;10144;50.874;4.762;2023-05-07T15:36:19;7.32;;;2.70;;
19965;SDS011;10144;50.874;4.762;2023-05-07T15:38:45;5.45;;;3.03;;
19965;SDS011;10144;50.874;4.762;2023-05-07T15:41:11;8.50;;;2.80;;
19965;SDS011;10144;50.874;4.762;2023-05-07T15:43:43;6.90;;;2.72;;
19965;SDS011;10144;50.874;4.762;2023-05-07T15:46:16;7.20;;;2.55;;
19965;SDS011;10144;50.874;4.762;2023-05-07T15:48:48;4.60;;;2.20;;
19965;SDS011;10144;50.874;4.762;2023-05-07T15:51:14;4.82;;;2.50;;
19965;SDS011;10144;50.874;4.762;2023-05-07T15:53:40;4.90;;;2.55;;
19965;SDS011;10144;50.874;4.762;2023-05-07T15:56:06;4.90;;;2.50;;
19965;SDS011;10144;50.874;4.762;2023-05-07T15:58:31;7.13;;;2.63;;
19965;SDS011;10144;50.874;4.762;2023-05-07T16:00:58;9.00;;;3.10;;
19965;SDS011;10144;50.874;4.762;2023-05-07T16:03:25;8.32;;;2.80;;
19965;SDS011;10144;50.874;4.762;2023-05-07T16:05:52;7.05;;;2.85;;
19965;SDS011;10144;50.874;4.762;2023-05-07T16:08:18;5.22;;;2.67;;
19965;SDS011;10144;50.874;4.762;2023-05-07T16:10:44;6.13;;;3.15;;
19965;SDS011;10144;50.874;4.762;2023-05-07T16:13:09;5.18;;;2.90;;
19965;SDS011;10144;50.874;4.762;2023-05-07T16:15:35;6.03;;;2.50;;
19965;SDS011;10144;50.874;4.762;2023-05-07T16:18:01;9.00;;;3.30;;
19965;SDS011;10144;50.874;4.762;2023-05-07T16:20:27;8.05;;;3.42;;
19965;SDS011;10144;50.874;4.762;2023-05-07T16:22:54;7.25;;;2.95;;